Main page
METAR-TAF:

METAR-TAF

Airports :

Juan Mendoza Airport

Oruro, Bolivia

latitude: 17-58S, longitude: 067-04W, elevation: 3072 m

Current weather observation

The report was made 4 hours and 20 minutes ago, at 01:00 UTC
Wind 12 kt from the South
Temperature 7°C
Humidity 49%
Pressure 1031 hPa
Visibility 10 km or more

METAR: SLOR 180100Z 19012KT 9999 NSC 07/M03 Q1031

Time: 01:20 (05:20 UTC)


TAF: missing

Weather observations and forecasts of more than 4000 airports (METAR and TAF reports).

The available stations are represented by yellow and red dots on the map.

Hover mouse over dot to see the name of the station.

Then click to see weather observations and forecasts.

To change the map : click on the green buttons with a black cross to zoom in, on the green button with a dash to zoom out, or on the green arrows for adjacent maps.


METAR-TAF: